sensor_id;sensor_type;location;lat;lon;timestamp;P1;durP1;ratioP1;P2;durP2;ratioP2
21810;SDS011;11067;48.788;9.208;2024-01-10T00:01:08;15.35;;;8.40;;
21810;SDS011;11067;48.788;9.208;2024-01-10T00:03:33;15.05;;;8.40;;
21810;SDS011;11067;48.788;9.208;2024-01-10T00:05:59;18.57;;;9.40;;
21810;SDS011;11067;48.788;9.208;2024-01-10T00:08:24;14.32;;;8.30;;
21810;SDS011;11067;48.788;9.208;2024-01-10T00:10:51;15.63;;;8.70;;
21810;SDS011;11067;48.788;9.208;2024-01-10T00:13:17;17.90;;;8.77;;
21810;SDS011;11067;48.788;9.208;2024-01-10T00:15:42;16.87;;;8.47;;
21810;SDS011;11067;48.788;9.208;2024-01-10T00:18:08;16.87;;;8.73;;
21810;SDS011;11067;48.788;9.208;2024-01-10T00:20:33;18.47;;;8.57;;
21810;SDS011;11067;48.788;9.208;2024-01-10T00:22:59;17.50;;;8.77;;
21810;SDS011;11067;48.788;9.208;2024-01-10T00:25:24;16.97;;;8.53;;
21810;SDS011;11067;48.788;9.208;2024-01-10T00:27:50;18.50;;;9.53;;
21810;SDS011;11067;48.788;9.208;2024-01-10T00:30:16;15.13;;;8.17;;
21810;SDS011;11067;48.788;9.208;2024-01-10T00:32:41;18.07;;;8.67;;
21810;SDS011;11067;48.788;9.208;2024-01-10T00:35:07;17.20;;;9.23;;
21810;SDS011;11067;48.788;9.208;2024-01-10T00:37:33;15.15;;;8.70;;
21810;SDS011;11067;48.788;9.208;2024-01-10T00:39:58;17.20;;;8.47;;
21810;SDS011;11067;48.788;9.208;2024-01-10T00:42:24;18.20;;;8.70;;
21810;SDS011;11067;48.788;9.208;2024-01-10T00:44:49;18.37;;;9.30;;
21810;SDS011;11067;48.788;9.208;2024-01-10T00:47:15;16.60;;;8.23;;
21810;SDS011;11067;48.788;9.208;2024-01-10T00:49:40;15.45;;;9.43;;
21810;SDS011;11067;48.788;9.208;2024-01-10T00:52:06;18.50;;;8.75;;
21810;SDS011;11067;48.788;9.208;2024-01-10T00:54:31;15.68;;;8.57;;
21810;SDS011;11067;48.788;9.208;2024-01-10T00:56:57;18.98;;;9.18;;
21810;SDS011;11067;48.788;9.208;2024-01-10T00:59:22;14.65;;;8.63;;
21810;SDS011;11067;48.788;9.208;2024-01-10T01:01:48;17.08;;;8.25;;
21810;SDS011;11067;48.788;9.208;2024-01-10T01:04:13;18.83;;;8.80;;
21810;SDS011;11067;48.788;9.208;2024-01-10T01:06:39;16.42;;;8.48;;
21810;SDS011;11067;48.788;9.208;2024-01-10T01:09:07;17.23;;;9.35;;
21810;SDS011;11067;48.788;9.208;2024-01-10T01:11:33;16.87;;;8.97;;
21810;SDS011;11067;48.788;9.208;2024-01-10T01:13:58;17.03;;;9.07;;
21810;SDS011;11067;48.788;9.208;2024-01-10T01:16:24;18.97;;;9.07;;
21810;SDS011;11067;48.788;9.208;2024-01-10T01:18:49;16.83;;;8.53;;
21810;SDS011;11067;48.788;9.208;2024-01-10T01:21:15;16.73;;;8.60;;
21810;SDS011;11067;48.788;9.208;2024-01-10T01:23:40;17.52;;;9.15;;
21810;SDS011;11067;48.788;9.208;2024-01-10T01:26:06;17.40;;;8.98;;
21810;SDS011;11067;48.788;9.208;2024-01-10T01:28:32;18.48;;;8.38;;
21810;SDS011;11067;48.788;9.208;2024-01-10T01:30:57;15.30;;;8.27;;
21810;SDS011;11067;48.788;9.208;2024-01-10T01:33:25;18.20;;;8.85;;
21810;SDS011;11067;48.788;9.208;2024-01-10T01:35:50;21.90;;;9.70;;
21810;SDS011;11067;48.788;9.208;2024-01-10T01:38:18;23.98;;;9.57;;
21810;SDS011;11067;48.788;9.208;2024-01-10T01:40:43;17.27;;;8.93;;
21810;SDS011;11067;48.788;9.208;2024-01-10T01:43:21;17.03;;;8.70;;
21810;SDS011;11067;48.788;9.208;2024-01-10T01:45:50;17.03;;;8.50;;
21810;SDS011;11067;48.788;9.208;2024-01-10T01:48:20;17.15;;;8.60;;
21810;SDS011;11067;48.788;9.208;2024-01-10T01:50:46;17.98;;;8.82;;
21810;SDS011;11067;48.788;9.208;2024-01-10T01:53:15;15.73;;;8.05;;
21810;SDS011;11067;48.788;9.208;2024-01-10T01:55:42;15.47;;;8.40;;
21810;SDS011;11067;48.788;9.208;2024-01-10T01:58:09;17.10;;;8.57;;
21810;SDS011;11067;48.788;9.208;2024-01-10T02:00:36;16.10;;;8.20;;
21810;SDS011;11067;48.788;9.208;2024-01-10T02:03:02;15.95;;;8.55;;
21810;SDS011;11067;48.788;9.208;2024-01-10T02:05:29;15.80;;;8.48;;
21810;SDS011;11067;48.788;9.208;2024-01-10T02:07:55;18.13;;;9.03;;
21810;SDS011;11067;48.788;9.208;2024-01-10T02:10:21;18.20;;;8.73;;
21810;SDS011;11067;48.788;9.208;2024-01-10T02:12:48;18.57;;;9.27;;
21810;SDS011;11067;48.788;9.208;2024-01-10T02:15:14;15.75;;;8.50;;
21810;SDS011;11067;48.788;9.208;2024-01-10T02:17:40;22.47;;;8.90;;
21810;SDS011;11067;48.788;9.208;2024-01-10T02:20:09;18.17;;;8.93;;
21810;SDS011;11067;48.788;9.208;2024-01-10T02:22:35;17.30;;;8.88;;
21810;SDS011;11067;48.788;9.208;2024-01-10T02:25:01;17.00;;;8.90;;
21810;SDS011;11067;48.788;9.208;2024-01-10T02:27:27;14.77;;;8.57;;
21810;SDS011;11067;48.788;9.208;2024-01-10T02:29:53;17.67;;;8.90;;
21810;SDS011;11067;48.788;9.208;2024-01-10T02:32:20;16.35;;;8.88;;
21810;SDS011;11067;48.788;9.208;2024-01-10T02:34:46;16.73;;;8.45;;
21810;SDS011;11067;48.788;9.208;2024-01-10T02:37:11;17.85;;;8.57;;
21810;SDS011;11067;48.788;9.208;2024-01-10T02:39:37;16.50;;;8.25;;
21810;SDS011;11067;48.788;9.208;2024-01-10T02:42:02;19.35;;;8.57;;
21810;SDS011;11067;48.788;9.208;2024-01-10T02:44:28;16.70;;;8.43;;
21810;SDS011;11067;48.788;9.208;2024-01-10T02:46:53;18.48;;;8.80;;
21810;SDS011;11067;48.788;9.208;2024-01-10T02:49:19;16.15;;;8.35;;
21810;SDS011;11067;48.788;9.208;2024-01-10T02:51:44;16.25;;;7.90;;
21810;SDS011;11067;48.788;9.208;2024-01-10T02:54:10;17.63;;;9.05;;
21810;SDS011;11067;48.788;9.208;2024-01-10T02:56:36;14.90;;;8.20;;
21810;SDS011;11067;48.788;9.208;2024-01-10T02:59:01;13.93;;;7.97;;
21810;SDS011;11067;48.788;9.208;2024-01-10T03:01:27;16.13;;;8.60;;
21810;SDS011;11067;48.788;9.208;2024-01-10T03:03:53;14.60;;;8.15;;
21810;SDS011;11067;48.788;9.208;2024-01-10T03:06:18;16.10;;;8.75;;
21810;SDS011;11067;48.788;9.208;2024-01-10T03:08:44;13.77;;;8.23;;
21810;SDS011;11067;48.788;9.208;2024-01-10T03:11:09;18.75;;;8.90;;
21810;SDS011;11067;48.788;9.208;2024-01-10T03:13:35;17.83;;;9.05;;
21810;SDS011;11067;48.788;9.208;2024-01-10T03:16:02;17.43;;;9.00;;
21810;SDS011;11067;48.788;9.208;2024-01-10T03:18:28;16.00;;;8.48;;
21810;SDS011;11067;48.788;9.208;2024-01-10T03:20:53;16.08;;;8.82;;
21810;SDS011;11067;48.788;9.208;2024-01-10T03:23:19;18.25;;;9.13;;
21810;SDS011;11067;48.788;9.208;2024-01-10T03:25:45;17.35;;;9.27;;
21810;SDS011;11067;48.788;9.208;2024-01-10T03:28:14;18.33;;;9.07;;
21810;SDS011;11067;48.788;9.208;2024-01-10T03:30:41;16.88;;;8.45;;
21810;SDS011;11067;48.788;9.208;2024-01-10T03:33:07;19.75;;;9.30;;
21810;SDS011;11067;48.788;9.208;2024-01-10T03:35:32;16.75;;;9.10;;
21810;SDS011;11067;48.788;9.208;2024-01-10T03:37:58;15.27;;;8.70;;
21810;SDS011;11067;48.788;9.208;2024-01-10T03:40:23;15.23;;;8.85;;
21810;SDS011;11067;48.788;9.208;2024-01-10T03:42:49;16.40;;;8.80;;
21810;SDS011;11067;48.788;9.208;2024-01-10T03:45:15;16.38;;;8.35;;
21810;SDS011;11067;48.788;9.208;2024-01-10T03:47:44;17.50;;;9.60;;
21810;SDS011;11067;48.788;9.208;2024-01-10T03:50:11;16.30;;;8.37;;
21810;SDS011;11067;48.788;9.208;2024-01-10T03:52:37;18.43;;;8.90;;
21810;SDS011;11067;48.788;9.208;2024-01-10T03:55:02;17.63;;;9.40;;
21810;SDS011;11067;48.788;9.208;2024-01-10T03:57:28;17.50;;;8.93;;
21810;SDS011;11067;48.788;9.208;2024-01-10T03:59:53;18.73;;;9.75;;
21810;SDS011;11067;48.788;9.208;2024-01-10T04:02:19;17.80;;;8.60;;
21810;SDS011;11067;48.788;9.208;2024-01-10T04:04:45;19.27;;;8.95;;
21810;SDS011;11067;48.788;9.208;2024-01-10T04:07:10;18.25;;;8.70;;
21810;SDS011;11067;48.788;9.208;2024-01-10T04:09:36;18.88;;;9.30;;
21810;SDS011;11067;48.788;9.208;2024-01-10T04:12:01;16.73;;;8.77;;
21810;SDS011;11067;48.788;9.208;2024-01-10T04:14:27;15.82;;;8.85;;
21810;SDS011;11067;48.788;9.208;2024-01-10T04:16:53;18.40;;;9.63;;
21810;SDS011;11067;48.788;9.208;2024-01-10T04:19:19;18.20;;;8.98;;
21810;SDS011;11067;48.788;9.208;2024-01-10T04:21:44;16.90;;;9.02;;
21810;SDS011;11067;48.788;9.208;2024-01-10T04:24:10;18.00;;;9.23;;
21810;SDS011;11067;48.788;9.208;2024-01-10T04:26:35;15.77;;;8.93;;
21810;SDS011;11067;48.788;9.208;2024-01-10T04:29:01;17.30;;;8.88;;
21810;SDS011;11067;48.788;9.208;2024-01-10T04:31:27;18.25;;;9.63;;
21810;SDS011;11067;48.788;9.208;2024-01-10T04:33:53;17.07;;;9.80;;
21810;SDS011;11067;48.788;9.208;2024-01-10T04:36:18;15.57;;;9.00;;
21810;SDS011;11067;48.788;9.208;2024-01-10T04:38:45;16.70;;;9.43;;
21810;SDS011;11067;48.788;9.208;2024-01-10T04:41:19;18.58;;;9.63;;
21810;SDS011;11067;48.788;9.208;2024-01-10T04:43:45;16.77;;;9.40;;
21810;SDS011;11067;48.788;9.208;2024-01-10T04:46:10;19.50;;;9.93;;
21810;SDS011;11067;48.788;9.208;2024-01-10T04:48:36;20.13;;;10.47;;
21810;SDS011;11067;48.788;9.208;2024-01-10T04:51:02;19.50;;;10.47;;
21810;SDS011;11067;48.788;9.208;2024-01-10T04:53:28;20.00;;;10.20;;
21810;SDS011;11067;48.788;9.208;2024-01-10T04:55:53;22.67;;;11.27;;
21810;SDS011;11067;48.788;9.208;2024-01-10T04:58:19;22.27;;;10.70;;
21810;SDS011;11067;48.788;9.208;2024-01-10T05:00:44;21.37;;;11.30;;
21810;SDS011;11067;48.788;9.208;2024-01-10T05:03:10;24.07;;;11.97;;
21810;SDS011;11067;48.788;9.208;2024-01-10T05:05:35;19.57;;;10.67;;
21810;SDS011;11067;48.788;9.208;2024-01-10T05:08:01;21.00;;;10.90;;
21810;SDS011;11067;48.788;9.208;2024-01-10T05:10:27;21.33;;;10.57;;
21810;SDS011;11067;48.788;9.208;2024-01-10T05:12:52;21.30;;;11.73;;
21810;SDS011;11067;48.788;9.208;2024-01-10T05:15:18;21.75;;;11.27;;
21810;SDS011;11067;48.788;9.208;2024-01-10T05:17:44;23.85;;;11.35;;
21810;SDS011;11067;48.788;9.208;2024-01-10T05:20:10;21.00;;;11.33;;
21810;SDS011;11067;48.788;9.208;2024-01-10T05:22:35;22.42;;;11.32;;
21810;SDS011;11067;48.788;9.208;2024-01-10T05:25:01;23.13;;;12.00;;
21810;SDS011;11067;48.788;9.208;2024-01-10T05:27:27;19.33;;;11.27;;
21810;SDS011;11067;48.788;9.208;2024-01-10T05:29:52;23.47;;;11.77;;
21810;SDS011;11067;48.788;9.208;2024-01-10T05:32:18;24.77;;;11.30;;
21810;SDS011;11067;48.788;9.208;2024-01-10T05:34:44;27.13;;;11.23;;
21810;SDS011;11067;48.788;9.208;2024-01-10T05:37:09;22.25;;;10.77;;
21810;SDS011;11067;48.788;9.208;2024-01-10T05:39:35;21.30;;;11.50;;
21810;SDS011;11067;48.788;9.208;2024-01-10T05:42:00;23.90;;;12.00;;
21810;SDS011;11067;48.788;9.208;2024-01-10T05:44:27;22.52;;;11.18;;
21810;SDS011;11067;48.788;9.208;2024-01-10T05:46:54;21.50;;;11.50;;
21810;SDS011;11067;48.788;9.208;2024-01-10T05:49:19;22.60;;;12.05;;
21810;SDS011;11067;48.788;9.208;2024-01-10T05:51:45;25.93;;;12.23;;
21810;SDS011;11067;48.788;9.208;2024-01-10T05:54:10;25.07;;;11.87;;
21810;SDS011;11067;48.788;9.208;2024-01-10T05:56:36;21.43;;;11.50;;
21810;SDS011;11067;48.788;9.208;2024-01-10T05:59:01;22.23;;;11.93;;
21810;SDS011;11067;48.788;9.208;2024-01-10T06:01:27;22.23;;;11.07;;
21810;SDS011;11067;48.788;9.208;2024-01-10T06:03:53;24.52;;;11.52;;
21810;SDS011;11067;48.788;9.208;2024-01-10T06:06:19;22.92;;;11.68;;
21810;SDS011;11067;48.788;9.208;2024-01-10T06:08:44;24.38;;;11.80;;
21810;SDS011;11067;48.788;9.208;2024-01-10T06:11:10;27.80;;;11.97;;
21810;SDS011;11067;48.788;9.208;2024-01-10T06:13:36;23.38;;;11.77;;
21810;SDS011;11067;48.788;9.208;2024-01-10T06:16:02;22.40;;;11.98;;
21810;SDS011;11067;48.788;9.208;2024-01-10T06:18:29;22.58;;;11.73;;
21810;SDS011;11067;48.788;9.208;2024-01-10T06:20:54;19.60;;;11.30;;
21810;SDS011;11067;48.788;9.208;2024-01-10T06:23:20;25.07;;;12.00;;
21810;SDS011;11067;48.788;9.208;2024-01-10T06:25:45;20.57;;;10.90;;
21810;SDS011;11067;48.788;9.208;2024-01-10T06:28:11;22.03;;;11.83;;
21810;SDS011;11067;48.788;9.208;2024-01-10T06:30:36;20.10;;;11.20;;
21810;SDS011;11067;48.788;9.208;2024-01-10T06:33:02;24.93;;;11.33;;
21810;SDS011;11067;48.788;9.208;2024-01-10T06:35:27;23.07;;;11.70;;
21810;SDS011;11067;48.788;9.208;2024-01-10T06:37:53;22.93;;;11.77;;
21810;SDS011;11067;48.788;9.208;2024-01-10T06:40:18;19.77;;;10.43;;
21810;SDS011;11067;48.788;9.208;2024-01-10T06:42:46;25.67;;;11.85;;
21810;SDS011;11067;48.788;9.208;2024-01-10T06:45:12;26.63;;;12.23;;
21810;SDS011;11067;48.788;9.208;2024-01-10T06:47:39;23.00;;;11.20;;
21810;SDS011;11067;48.788;9.208;2024-01-10T06:50:04;21.57;;;10.27;;
21810;SDS011;11067;48.788;9.208;2024-01-10T06:52:31;25.85;;;11.65;;
21810;SDS011;11067;48.788;9.208;2024-01-10T06:54:57;22.03;;;11.20;;
21810;SDS011;11067;48.788;9.208;2024-01-10T06:57:22;23.43;;;10.80;;
21810;SDS011;11067;48.788;9.208;2024-01-10T06:59:48;19.40;;;10.25;;
21810;SDS011;11067;48.788;9.208;2024-01-10T07:02:14;17.98;;;10.38;;
21810;SDS011;11067;48.788;9.208;2024-01-10T07:04:40;25.50;;;11.20;;
21810;SDS011;11067;48.788;9.208;2024-01-10T07:07:05;22.75;;;10.98;;
21810;SDS011;11067;48.788;9.208;2024-01-10T07:09:33;22.98;;;11.52;;
21810;SDS011;11067;48.788;9.208;2024-01-10T07:11:59;20.33;;;11.18;;
21810;SDS011;11067;48.788;9.208;2024-01-10T07:14:24;20.30;;;10.82;;
21810;SDS011;11067;48.788;9.208;2024-01-10T07:16:50;21.53;;;10.90;;
21810;SDS011;11067;48.788;9.208;2024-01-10T07:19:16;19.02;;;10.68;;
21810;SDS011;11067;48.788;9.208;2024-01-10T07:21:42;22.70;;;10.97;;
21810;SDS011;11067;48.788;9.208;2024-01-10T07:24:08;22.67;;;10.90;;
21810;SDS011;11067;48.788;9.208;2024-01-10T07:26:37;27.38;;;11.70;;
21810;SDS011;11067;48.788;9.208;2024-01-10T07:29:03;20.23;;;11.27;;
21810;SDS011;11067;48.788;9.208;2024-01-10T07:31:29;20.88;;;10.90;;
21810;SDS011;11067;48.788;9.208;2024-01-10T07:33:57;20.98;;;11.45;;
21810;SDS011;11067;48.788;9.208;2024-01-10T07:36:23;23.55;;;11.15;;
21810;SDS011;11067;48.788;9.208;2024-01-10T07:38:54;23.65;;;11.85;;
21810;SDS011;11067;48.788;9.208;2024-01-10T07:41:22;25.35;;;13.77;;
21810;SDS011;11067;48.788;9.208;2024-01-10T07:43:47;25.80;;;13.88;;
21810;SDS011;11067;48.788;9.208;2024-01-10T07:46:13;27.50;;;14.10;;
21810;SDS011;11067;48.788;9.208;2024-01-10T07:48:39;27.52;;;13.73;;
21810;SDS011;11067;48.788;9.208;2024-01-10T07:51:05;25.63;;;13.40;;
21810;SDS011;11067;48.788;9.208;2024-01-10T07:53:31;26.37;;;13.40;;
21810;SDS011;11067;48.788;9.208;2024-01-10T07:55:56;25.17;;;12.37;;
21810;SDS011;11067;48.788;9.208;2024-01-10T07:58:22;25.23;;;12.63;;
21810;SDS011;11067;48.788;9.208;2024-01-10T08:00:47;25.40;;;12.80;;
21810;SDS011;11067;48.788;9.208;2024-01-10T08:03:13;25.77;;;12.90;;
21810;SDS011;11067;48.788;9.208;2024-01-10T08:05:39;23.70;;;12.15;;
21810;SDS011;11067;48.788;9.208;2024-01-10T08:08:04;25.70;;;12.95;;
21810;SDS011;11067;48.788;9.208;2024-01-10T08:10:30;24.27;;;11.93;;
21810;SDS011;11067;48.788;9.208;2024-01-10T08:12:56;22.43;;;12.00;;
21810;SDS011;11067;48.788;9.208;2024-01-10T08:15:21;22.70;;;12.33;;
21810;SDS011;11067;48.788;9.208;2024-01-10T08:17:47;23.52;;;12.38;;
21810;SDS011;11067;48.788;9.208;2024-01-10T08:20:14;23.30;;;11.93;;
21810;SDS011;11067;48.788;9.208;2024-01-10T08:22:44;25.35;;;12.30;;
21810;SDS011;11067;48.788;9.208;2024-01-10T08:25:10;22.92;;;12.63;;
21810;SDS011;11067;48.788;9.208;2024-01-10T08:27:37;24.25;;;11.82;;
21810;SDS011;11067;48.788;9.208;2024-01-10T08:30:03;24.10;;;12.73;;
21810;SDS011;11067;48.788;9.208;2024-01-10T08:32:30;27.98;;;12.70;;
21810;SDS011;11067;48.788;9.208;2024-01-10T08:34:56;26.20;;;12.95;;
21810;SDS011;11067;48.788;9.208;2024-01-10T08:37:22;26.83;;;12.40;;
21810;SDS011;11067;48.788;9.208;2024-01-10T08:39:47;26.77;;;13.23;;
21810;SDS011;11067;48.788;9.208;2024-01-10T08:42:13;26.48;;;13.93;;
21810;SDS011;11067;48.788;9.208;2024-01-10T08:44:38;24.20;;;11.75;;
21810;SDS011;11067;48.788;9.208;2024-01-10T08:47:04;23.98;;;12.77;;
21810;SDS011;11067;48.788;9.208;2024-01-10T08:49:29;25.75;;;13.38;;
21810;SDS011;11067;48.788;9.208;2024-01-10T08:51:55;24.40;;;13.15;;
21810;SDS011;11067;48.788;9.208;2024-01-10T08:54:21;25.15;;;13.18;;
21810;SDS011;11067;48.788;9.208;2024-01-10T08:56:47;25.85;;;14.05;;
21810;SDS011;11067;48.788;9.208;2024-01-10T08:59:13;27.95;;;14.07;;
21810;SDS011;11067;48.788;9.208;2024-01-10T09:01:39;24.73;;;13.90;;
21810;SDS011;11067;48.788;9.208;2024-01-10T09:04:05;31.13;;;15.35;;
21810;SDS011;11067;48.788;9.208;2024-01-10T09:06:31;27.13;;;13.75;;
21810;SDS011;11067;48.788;9.208;2024-01-10T09:08:57;28.45;;;13.75;;
21810;SDS011;11067;48.788;9.208;2024-01-10T09:11:23;29.50;;;15.10;;
21810;SDS011;11067;48.788;9.208;2024-01-10T09:13:49;28.85;;;14.95;;
21810;SDS011;11067;48.788;9.208;2024-01-10T09:16:16;32.60;;;14.60;;
21810;SDS011;11067;48.788;9.208;2024-01-10T09:18:43;28.02;;;14.75;;
21810;SDS011;11067;48.788;9.208;2024-01-10T09:21:09;31.27;;;15.32;;
21810;SDS011;11067;48.788;9.208;2024-01-10T09:23:34;29.43;;;15.67;;
21810;SDS011;11067;48.788;9.208;2024-01-10T09:26:01;27.93;;;14.63;;
21810;SDS011;11067;48.788;9.208;2024-01-10T09:28:27;29.27;;;15.50;;
21810;SDS011;11067;48.788;9.208;2024-01-10T09:30:53;30.05;;;15.30;;
21810;SDS011;11067;48.788;9.208;2024-01-10T09:33:19;31.20;;;15.30;;
21810;SDS011;11067;48.788;9.208;2024-01-10T09:35:45;31.23;;;14.70;;
21810;SDS011;11067;48.788;9.208;2024-01-10T09:38:10;27.35;;;15.32;;
21810;SDS011;11067;48.788;9.208;2024-01-10T09:40:36;31.08;;;15.70;;
21810;SDS011;11067;48.788;9.208;2024-01-10T09:43:02;30.02;;;16.20;;
21810;SDS011;11067;48.788;9.208;2024-01-10T09:45:30;30.92;;;15.90;;
21810;SDS011;11067;48.788;9.208;2024-01-10T09:47:59;31.42;;;15.40;;
21810;SDS011;11067;48.788;9.208;2024-01-10T09:50:26;27.87;;;15.30;;
21810;SDS011;11067;48.788;9.208;2024-01-10T09:52:53;25.20;;;14.43;;
21810;SDS011;11067;48.788;9.208;2024-01-10T09:55:35;29.35;;;15.27;;
21810;SDS011;11067;48.788;9.208;2024-01-10T09:58:05;28.27;;;15.60;;
21810;SDS011;11067;48.788;9.208;2024-01-10T10:00:32;29.83;;;15.00;;
21810;SDS011;11067;48.788;9.208;2024-01-10T10:03:00;28.57;;;15.77;;
21810;SDS011;11067;48.788;9.208;2024-01-10T10:05:29;28.77;;;15.77;;
21810;SDS011;11067;48.788;9.208;2024-01-10T10:07:54;30.17;;;15.77;;
21810;SDS011;11067;48.788;9.208;2024-01-10T10:10:20;29.48;;;15.95;;
21810;SDS011;11067;48.788;9.208;2024-01-10T10:12:49;29.02;;;15.98;;
21810;SDS011;11067;48.788;9.208;2024-01-10T10:15:19;31.13;;;16.02;;
21810;SDS011;11067;48.788;9.208;2024-01-10T10:17:49;28.85;;;15.57;;
21810;SDS011;11067;48.788;9.208;2024-01-10T10:22:57;29.73;;;15.57;;
21810;SDS011;11067;48.788;9.208;2024-01-10T10:27:57;28.37;;;15.23;;
21810;SDS011;11067;48.788;9.208;2024-01-10T10:30:23;30.70;;;16.65;;
21810;SDS011;11067;48.788;9.208;2024-01-10T10:32:49;29.60;;;15.50;;
21810;SDS011;11067;48.788;9.208;2024-01-10T10:35:15;29.45;;;15.75;;
21810;SDS011;11067;48.788;9.208;2024-01-10T10:37:40;31.10;;;15.77;;
21810;SDS011;11067;48.788;9.208;2024-01-10T10:40:06;27.50;;;16.50;;
21810;SDS011;11067;48.788;9.208;2024-01-10T10:42:34;28.77;;;16.00;;
21810;SDS011;11067;48.788;9.208;2024-01-10T10:45:04;31.17;;;16.00;;
21810;SDS011;11067;48.788;9.208;2024-01-10T10:47:30;29.30;;;16.70;;
21810;SDS011;11067;48.788;9.208;2024-01-10T10:50:01;30.33;;;16.48;;
21810;SDS011;11067;48.788;9.208;2024-01-10T10:52:29;30.08;;;17.00;;
21810;SDS011;11067;48.788;9.208;2024-01-10T10:54:56;31.10;;;16.75;;
21810;SDS011;11067;48.788;9.208;2024-01-10T10:57:26;28.70;;;16.60;;
21810;SDS011;11067;48.788;9.208;2024-01-10T10:59:53;30.40;;;16.70;;
21810;SDS011;11067;48.788;9.208;2024-01-10T11:02:22;33.40;;;16.57;;
21810;SDS011;11067;48.788;9.208;2024-01-10T11:04:51;31.38;;;17.30;;
21810;SDS011;11067;48.788;9.208;2024-01-10T11:07:19;30.77;;;17.33;;
21810;SDS011;11067;48.788;9.208;2024-01-10T11:09:45;32.78;;;17.38;;
21810;SDS011;11067;48.788;9.208;2024-01-10T11:14:58;30.80;;;16.60;;
21810;SDS011;11067;48.788;9.208;2024-01-10T11:20:10;29.65;;;16.67;;
21810;SDS011;11067;48.788;9.208;2024-01-10T11:22:46;29.85;;;15.48;;
21810;SDS011;11067;48.788;9.208;2024-01-10T11:25:14;32.95;;;17.73;;
21810;SDS011;11067;48.788;9.208;2024-01-10T11:27:40;31.57;;;17.30;;
21810;SDS011;11067;48.788;9.208;2024-01-10T11:30:08;33.03;;;16.92;;
21810;SDS011;11067;48.788;9.208;2024-01-10T11:32:35;28.60;;;16.77;;
21810;SDS011;11067;48.788;9.208;2024-01-10T11:35:05;31.73;;;17.67;;
21810;SDS011;11067;48.788;9.208;2024-01-10T11:37:42;33.27;;;17.37;;
21810;SDS011;11067;48.788;9.208;2024-01-10T11:40:09;33.97;;;17.97;;
21810;SDS011;11067;48.788;9.208;2024-01-10T11:42:42;32.78;;;17.30;;
21810;SDS011;11067;48.788;9.208;2024-01-10T11:45:09;32.30;;;17.38;;
21810;SDS011;11067;48.788;9.208;2024-01-10T11:47:37;29.87;;;16.70;;
21810;SDS011;11067;48.788;9.208;2024-01-10T11:50:04;31.85;;;17.25;;
21810;SDS011;11067;48.788;9.208;2024-01-10T11:52:32;32.70;;;17.63;;
21810;SDS011;11067;48.788;9.208;2024-01-10T11:55:01;31.95;;;16.88;;
21810;SDS011;11067;48.788;9.208;2024-01-10T11:57:28;32.83;;;17.95;;
21810;SDS011;11067;48.788;9.208;2024-01-10T11:59:56;32.30;;;17.20;;
21810;SDS011;11067;48.788;9.208;2024-01-10T12:02:25;30.05;;;16.77;;
21810;SDS011;11067;48.788;9.208;2024-01-10T12:04:52;33.10;;;17.55;;
21810;SDS011;11067;48.788;9.208;2024-01-10T12:07:18;33.38;;;18.02;;
21810;SDS011;11067;48.788;9.208;2024-01-10T12:09:45;30.42;;;16.92;;
21810;SDS011;11067;48.788;9.208;2024-01-10T12:12:14;32.63;;;17.63;;
21810;SDS011;11067;48.788;9.208;2024-01-10T12:14:40;32.28;;;18.40;;
21810;SDS011;11067;48.788;9.208;2024-01-10T12:17:08;32.97;;;16.85;;
21810;SDS011;11067;48.788;9.208;2024-01-10T12:19:34;32.28;;;18.13;;
21810;SDS011;11067;48.788;9.208;2024-01-10T12:22:00;31.05;;;18.23;;
21810;SDS011;11067;48.788;9.208;2024-01-10T12:24:29;31.47;;;17.70;;
21810;SDS011;11067;48.788;9.208;2024-01-10T12:26:55;32.90;;;18.38;;
21810;SDS011;11067;48.788;9.208;2024-01-10T12:29:21;32.63;;;17.48;;
21810;SDS011;11067;48.788;9.208;2024-01-10T12:31:47;32.88;;;17.92;;
21810;SDS011;11067;48.788;9.208;2024-01-10T12:34:13;30.77;;;18.05;;
21810;SDS011;11067;48.788;9.208;2024-01-10T12:36:40;34.67;;;18.30;;
21810;SDS011;11067;48.788;9.208;2024-01-10T12:39:09;33.63;;;17.87;;
21810;SDS011;11067;48.788;9.208;2024-01-10T12:41:35;31.43;;;17.77;;
21810;SDS011;11067;48.788;9.208;2024-01-10T12:44:01;31.80;;;17.63;;
21810;SDS011;11067;48.788;9.208;2024-01-10T12:46:28;31.38;;;18.08;;
21810;SDS011;11067;48.788;9.208;2024-01-10T12:49:02;33.30;;;17.75;;
21810;SDS011;11067;48.788;9.208;2024-01-10T12:51:30;31.73;;;17.75;;
21810;SDS011;11067;48.788;9.208;2024-01-10T12:53:57;32.30;;;17.43;;
21810;SDS011;11067;48.788;9.208;2024-01-10T12:56:23;43.10;;;19.10;;
21810;SDS011;11067;48.788;9.208;2024-01-10T12:58:50;31.80;;;17.80;;
21810;SDS011;11067;48.788;9.208;2024-01-10T13:01:15;32.03;;;18.07;;
21810;SDS011;11067;48.788;9.208;2024-01-10T13:03:41;32.45;;;18.02;;
21810;SDS011;11067;48.788;9.208;2024-01-10T13:06:07;32.78;;;17.77;;
21810;SDS011;11067;48.788;9.208;2024-01-10T13:08:34;32.95;;;17.70;;
21810;SDS011;11067;48.788;9.208;2024-01-10T13:11:00;32.33;;;19.05;;
21810;SDS011;11067;48.788;9.208;2024-01-10T13:13:25;34.65;;;18.27;;
21810;SDS011;11067;48.788;9.208;2024-01-10T13:15:51;34.53;;;19.27;;
21810;SDS011;11067;48.788;9.208;2024-01-10T13:18:17;31.42;;;17.13;;
21810;SDS011;11067;48.788;9.208;2024-01-10T13:20:43;32.83;;;18.48;;
21810;SDS011;11067;48.788;9.208;2024-01-10T13:23:09;32.20;;;17.42;;
21810;SDS011;11067;48.788;9.208;2024-01-10T13:25:35;29.83;;;17.70;;
21810;SDS011;11067;48.788;9.208;2024-01-10T13:28:02;32.45;;;17.25;;
21810;SDS011;11067;48.788;9.208;2024-01-10T13:30:28;30.83;;;16.97;;
21810;SDS011;11067;48.788;9.208;2024-01-10T13:32:53;35.43;;;18.27;;
21810;SDS011;11067;48.788;9.208;2024-01-10T13:35:19;32.03;;;17.37;;
21810;SDS011;11067;48.788;9.208;2024-01-10T13:37:45;31.83;;;16.87;;
21810;SDS011;11067;48.788;9.208;2024-01-10T13:40:11;29.38;;;17.77;;
21810;SDS011;11067;48.788;9.208;2024-01-10T13:42:40;33.92;;;17.92;;
21810;SDS011;11067;48.788;9.208;2024-01-10T13:45:06;31.02;;;17.42;;
21810;SDS011;11067;48.788;9.208;2024-01-10T13:47:33;35.45;;;19.05;;
21810;SDS011;11067;48.788;9.208;2024-01-10T13:49:59;33.83;;;17.83;;
21810;SDS011;11067;48.788;9.208;2024-01-10T13:52:25;33.17;;;17.95;;
21810;SDS011;11067;48.788;9.208;2024-01-10T13:54:51;34.10;;;18.27;;
21810;SDS011;11067;48.788;9.208;2024-01-10T13:57:17;33.58;;;18.70;;
21810;SDS011;11067;48.788;9.208;2024-01-10T13:59:43;34.20;;;19.02;;
21810;SDS011;11067;48.788;9.208;2024-01-10T14:02:09;33.27;;;18.07;;
21810;SDS011;11067;48.788;9.208;2024-01-10T14:04:35;34.88;;;19.30;;
21810;SDS011;11067;48.788;9.208;2024-01-10T14:07:01;36.13;;;18.13;;
21810;SDS011;11067;48.788;9.208;2024-01-10T14:09:28;35.53;;;18.60;;
21810;SDS011;11067;48.788;9.208;2024-01-10T14:11:54;35.17;;;18.52;;
21810;SDS011;11067;48.788;9.208;2024-01-10T14:14:20;34.00;;;18.60;;
21810;SDS011;11067;48.788;9.208;2024-01-10T14:16:45;35.17;;;18.40;;
21810;SDS011;11067;48.788;9.208;2024-01-10T14:19:11;33.30;;;19.30;;
21810;SDS011;11067;48.788;9.208;2024-01-10T14:21:36;33.27;;;18.27;;
21810;SDS011;11067;48.788;9.208;2024-01-10T14:24:02;30.53;;;18.27;;
21810;SDS011;11067;48.788;9.208;2024-01-10T14:26:27;37.07;;;19.13;;
21810;SDS011;11067;48.788;9.208;2024-01-10T14:28:53;32.70;;;18.53;;
21810;SDS011;11067;48.788;9.208;2024-01-10T14:31:20;36.58;;;19.33;;